createdAt,value
2022-12-03T00:01:16.431Z,-2.36
2022-12-03T00:03:43.648Z,-2.37
2022-12-03T00:06:11.039Z,-2.36
2022-12-03T00:08:38.294Z,-2.33
2022-12-03T00:11:05.749Z,-2.28
2022-12-03T00:13:33.002Z,-2.26
2022-12-03T00:16:00.222Z,-2.26
2022-12-03T00:18:27.516Z,-2.25
2022-12-03T00:20:54.576Z,-2.27
2022-12-03T00:23:21.917Z,-2.28
2022-12-03T00:25:49.090Z,-2.29
2022-12-03T00:28:16.172Z,-2.32
2022-12-03T00:30:43.609Z,-2.32
2022-12-03T00:33:11.023Z,-2.31
2022-12-03T00:35:38.176Z,-2.28
2022-12-03T00:38:05.529Z,-2.22
2022-12-03T00:40:32.712Z,-2.19
2022-12-03T00:42:59.770Z,-2.16
2022-12-03T00:45:26.954Z,-2.14
2022-12-03T00:47:54.017Z,-2.12
2022-12-03T00:50:22.104Z,-2.13
2022-12-03T00:52:49.833Z,-2.14
2022-12-03T00:55:17.231Z,-2.17
2022-12-03T00:57:44.335Z,-2.22
2022-12-03T01:00:15.726Z,-2.27
2022-12-03T01:02:43.074Z,-2.32
2022-12-03T01:05:11.737Z,-2.33
2022-12-03T01:07:38.985Z,-2.33
2022-12-03T01:10:07.079Z,-2.29
2022-12-03T01:12:34.281Z,-2.28
2022-12-03T01:15:01.404Z,-2.29
2022-12-03T01:17:28.497Z,-2.30
2022-12-03T01:19:55.654Z,-2.32
2022-12-03T01:22:22.988Z,-2.37
2022-12-03T01:24:50.379Z,-2.40
2022-12-03T01:27:18.149Z,-2.46
2022-12-03T01:29:45.227Z,-2.49
2022-12-03T01:32:19.789Z,-2.48
2022-12-03T01:34:47.904Z,-2.42
2022-12-03T01:37:15.567Z,-2.37
2022-12-03T01:39:43.130Z,-2.35
2022-12-03T01:42:13.909Z,-2.33
2022-12-03T01:44:42.254Z,-2.31
2022-12-03T01:47:14.084Z,-2.32
2022-12-03T01:49:44.834Z,-2.35
2022-12-03T01:52:15.162Z,-2.38
2022-12-03T01:54:47.602Z,-2.40
2022-12-03T01:57:23.538Z,-2.45
2022-12-03T01:59:51.564Z,-2.49
2022-12-03T02:02:23.932Z,-2.51
2022-12-03T02:04:53.393Z,-2.48
2022-12-03T02:07:24.589Z,-2.45
2022-12-03T02:09:51.940Z,-2.41
2022-12-03T02:12:22.675Z,-2.36
2022-12-03T02:14:50.620Z,-2.32
2022-12-03T02:17:19.133Z,-2.31
2022-12-03T02:19:47.493Z,-2.32
2022-12-03T02:22:27.964Z,-2.34
2022-12-03T02:25:03.422Z,-2.36
2022-12-03T02:27:31.206Z,-2.41
2022-12-03T02:29:58.941Z,-2.45
2022-12-03T02:32:26.116Z,-2.46
2022-12-03T02:34:54.111Z,-2.42
2022-12-03T02:37:24.702Z,-2.37
2022-12-03T02:39:55.247Z,-2.37
2022-12-03T02:42:39.410Z,-2.34
2022-12-03T02:45:12.189Z,-2.31
2022-12-03T02:47:45.751Z,-2.30
2022-12-03T02:50:16.401Z,-2.34
2022-12-03T02:52:46.003Z,-2.43
2022-12-03T02:55:16.121Z,-2.47
2022-12-03T02:57:45.472Z,-2.48
2022-12-03T03:00:15.130Z,-2.43
2022-12-03T03:02:43.578Z,-2.37
2022-12-03T03:05:13.221Z,-2.32
2022-12-03T03:07:41.219Z,-2.27
2022-12-03T03:10:12.482Z,-2.21
2022-12-03T03:12:40.574Z,-2.17
2022-12-03T03:15:10.718Z,-2.15
2022-12-03T03:17:39.034Z,-2.15
2022-12-03T03:20:09.363Z,-2.17
2022-12-03T03:22:38.522Z,-2.18
2022-12-03T03:25:08.447Z,-2.18
2022-12-03T03:27:36.395Z,-2.16
2022-12-03T03:30:04.323Z,-2.14
2022-12-03T03:32:32.383Z,-2.09
2022-12-03T03:35:01.788Z,-2.05
2022-12-03T03:37:30.054Z,-2.00
2022-12-03T03:39:57.727Z,-1.98
2022-12-03T03:42:26.018Z,-1.95
2022-12-03T03:44:53.594Z,-1.94
2022-12-03T03:47:23.950Z,-1.95
2022-12-03T03:49:51.554Z,-1.97
2022-12-03T03:52:18.929Z,-2.00
2022-12-03T03:54:46.425Z,-2.02
2022-12-03T03:57:13.678Z,-2.03
2022-12-03T03:59:41.340Z,-2.05
2022-12-03T04:02:16.462Z,-2.06
2022-12-03T04:04:43.729Z,-2.07
2022-12-03T04:07:10.878Z,-2.04
2022-12-03T04:09:38.236Z,-2.02
2022-12-03T04:12:23.310Z,-2.00
2022-12-03T04:14:50.436Z,-1.98
2022-12-03T04:17:17.582Z,-1.98
2022-12-03T04:19:44.768Z,-1.99
2022-12-03T04:22:29.727Z,-2.02
2022-12-03T04:25:17.356Z,-2.06
2022-12-03T04:28:04.578Z,-2.07
2022-12-03T04:30:32.178Z,-2.08
2022-12-03T04:33:17.002Z,-2.07
2022-12-03T04:35:44.330Z,-2.05
2022-12-03T04:38:11.917Z,-2.03
2022-12-03T04:41:05.186Z,-2.01
2022-12-03T04:43:34.651Z,-2.00
2022-12-03T04:46:02.857Z,-1.99
2022-12-03T04:48:30.326Z,-1.95
2022-12-03T04:50:57.401Z,-1.93
2022-12-03T04:53:24.717Z,-1.91
2022-12-03T04:55:52.278Z,-1.89
2022-12-03T04:58:19.735Z,-1.90
2022-12-03T05:00:46.884Z,-1.92
2022-12-03T05:03:14.343Z,-1.96
2022-12-03T05:05:41.625Z,-1.99
2022-12-03T05:08:10.442Z,-2.01
2022-12-03T05:10:37.643Z,-2.03
2022-12-03T05:13:04.786Z,-2.05
2022-12-03T05:15:31.941Z,-2.06
2022-12-03T05:17:59.088Z,-2.07
2022-12-03T05:20:49.772Z,-2.05
2022-12-03T05:23:20.852Z,-2.04
2022-12-03T05:25:48.289Z,-2.05
2022-12-03T05:28:16.360Z,-2.05
2022-12-03T05:30:43.694Z,-2.08
2022-12-03T05:33:11.006Z,-2.10
2022-12-03T05:35:38.065Z,-2.17
2022-12-03T05:38:05.141Z,-2.20
2022-12-03T05:40:32.292Z,-2.20
2022-12-03T05:43:01.701Z,-2.21
2022-12-03T05:45:30.384Z,-2.22
2022-12-03T05:47:58.454Z,-2.22
2022-12-03T05:50:28.088Z,-2.22
2022-12-03T05:52:55.851Z,-2.20
2022-12-03T05:55:23.316Z,-2.21
2022-12-03T05:57:50.664Z,-2.21
2022-12-03T06:00:20.829Z,-2.18
2022-12-03T06:02:48.315Z,-2.14
2022-12-03T06:05:19.505Z,-2.12
2022-12-03T06:07:46.992Z,-2.14
2022-12-03T06:10:16.722Z,-2.16
2022-12-03T06:12:44.371Z,-2.18
2022-12-03T06:15:14.184Z,-2.20
2022-12-03T06:17:41.824Z,-2.22
2022-12-03T06:20:11.843Z,-2.25
2022-12-03T06:22:38.954Z,-2.28
2022-12-03T06:25:07.397Z,-2.30
2022-12-03T06:27:35.004Z,-2.30
2022-12-03T06:30:02.462Z,-2.31
2022-12-03T06:32:29.940Z,-2.30
2022-12-03T06:34:57.379Z,-2.28
2022-12-03T06:37:24.727Z,-2.27
2022-12-03T06:39:51.876Z,-2.22
2022-12-03T06:42:19.027Z,-2.20
2022-12-03T06:44:46.280Z,-2.20
2022-12-03T06:47:13.840Z,-2.16
2022-12-03T06:49:41.287Z,-2.12
2022-12-03T06:52:08.497Z,-2.09
2022-12-03T06:54:35.817Z,-2.03
2022-12-03T06:57:03.365Z,-1.95
2022-12-03T06:59:34.304Z,-1.88
2022-12-03T07:02:02.079Z,-1.80
2022-12-03T07:04:29.263Z,-1.74
2022-12-03T07:06:56.357Z,-1.70
2022-12-03T07:09:23.624Z,-1.67
2022-12-03T07:11:50.719Z,-1.67
2022-12-03T07:14:17.850Z,-1.70
2022-12-03T07:16:44.954Z,-1.74
2022-12-03T07:19:12.870Z,-1.79
2022-12-03T07:21:40.006Z,-1.78
2022-12-03T07:24:07.582Z,-1.75
2022-12-03T07:26:35.016Z,-1.70
2022-12-03T07:29:02.332Z,-1.62
2022-12-03T07:31:30.240Z,-1.56
2022-12-03T07:33:57.670Z,-1.52
2022-12-03T07:36:24.939Z,-1.52
2022-12-03T07:38:52.289Z,-1.53
2022-12-03T07:41:19.652Z,-1.55
2022-12-03T07:43:47.128Z,-1.57
2022-12-03T07:46:15.833Z,-1.58
2022-12-03T07:48:45.810Z,-1.56
2022-12-03T07:51:15.372Z,-1.51
2022-12-03T07:53:43.039Z,-1.45
2022-12-03T07:56:11.270Z,-1.41
2022-12-03T07:58:38.925Z,-1.37
2022-12-03T08:01:06.280Z,-1.36
2022-12-03T08:03:33.537Z,-1.35
2022-12-03T08:06:00.990Z,-1.36
2022-12-03T08:08:28.177Z,-1.39
2022-12-03T08:10:55.300Z,-1.42
2022-12-03T08:13:22.463Z,-1.42
2022-12-03T08:15:49.898Z,-1.39
2022-12-03T08:18:19.777Z,-1.35
2022-12-03T08:20:49.041Z,-1.34
2022-12-03T08:23:19.043Z,-1.34
2022-12-03T08:25:48.690Z,-1.33
2022-12-03T08:28:19.158Z,-1.34
2022-12-03T08:30:48.752Z,-1.36
2022-12-03T08:33:27.998Z,-1.39
2022-12-03T08:35:56.276Z,-1.41
2022-12-03T08:38:26.331Z,-1.43
2022-12-03T08:40:55.842Z,-1.41
2022-12-03T08:43:25.431Z,-1.36
2022-12-03T08:45:54.138Z,-1.29
2022-12-03T08:48:36.916Z,-1.22
2022-12-03T08:51:20.019Z,-1.13
2022-12-03T08:53:53.308Z,-1.10
2022-12-03T08:56:26.181Z,-1.09
2022-12-03T08:58:57.057Z,-1.07
2022-12-03T09:01:43.090Z,-1.09
2022-12-03T09:04:24.068Z,-1.08
2022-12-03T09:06:52.290Z,-1.05
2022-12-03T09:09:19.907Z,-0.98
2022-12-03T09:11:47.612Z,-0.90
2022-12-03T09:14:18.712Z,-0.85
2022-12-03T09:16:46.375Z,-0.82
2022-12-03T09:19:14.007Z,-0.79
2022-12-03T09:21:41.753Z,-0.77
2022-12-03T09:24:09.562Z,-0.75
2022-12-03T09:26:36.765Z,-0.74
2022-12-03T09:29:08.939Z,-0.72
2022-12-03T09:31:39.009Z,-0.67
2022-12-03T09:34:07.749Z,-0.62
2022-12-03T09:36:34.994Z,-0.55
2022-12-03T09:39:02.248Z,-0.48
2022-12-03T09:41:30.206Z,-0.43
2022-12-03T09:44:05.834Z,-0.42
2022-12-03T09:46:34.822Z,-0.41
2022-12-03T09:49:03.449Z,-0.41
2022-12-03T09:51:36.016Z,-0.44
2022-12-03T09:54:04.468Z,-0.51
2022-12-03T09:56:31.958Z,-0.55
2022-12-03T09:58:59.309Z,-0.55
2022-12-03T10:01:30.383Z,-0.56
2022-12-03T10:03:58.484Z,-0.53
2022-12-03T10:06:26.391Z,-0.49
2022-12-03T10:08:56.206Z,-0.46
2022-12-03T10:11:26.251Z,-0.46
2022-12-03T10:13:54.002Z,-0.43
2022-12-03T10:16:22.580Z,-0.34
2022-12-03T10:18:52.485Z,-0.23
2022-12-03T10:21:25.268Z,-0.08
2022-12-03T10:24:12.591Z,0.10
2022-12-03T10:26:41.870Z,0.21
2022-12-03T10:29:15.001Z,0.24
2022-12-03T10:31:42.172Z,0.27
2022-12-03T10:34:09.910Z,0.27
2022-12-03T10:36:37.359Z,0.20
2022-12-03T10:39:13.829Z,0.13
2022-12-03T10:41:42.280Z,0.08
2022-12-03T10:44:20.142Z,0.04
2022-12-03T10:46:58.735Z,0.04
2022-12-03T10:49:26.487Z,0.02
2022-12-03T10:51:53.638Z,-0.05
2022-12-03T10:54:23.210Z,-0.05
2022-12-03T10:56:52.580Z,-0.06
2022-12-03T10:59:23.195Z,-0.16
2022-12-03T11:01:51.135Z,-0.18
2022-12-03T11:04:33.378Z,-0.19
2022-12-03T11:07:02.854Z,-0.23
2022-12-03T11:09:33.181Z,-0.24
2022-12-03T11:12:07.349Z,-0.22
2022-12-03T11:15:15.188Z,-0.20
2022-12-03T11:17:50.996Z,-0.19
2022-12-03T11:20:52.681Z,-0.20
2022-12-03T11:23:57.243Z,-0.22
2022-12-03T11:27:02.958Z,-0.27
2022-12-03T11:29:51.547Z,-0.27
2022-12-03T11:32:49.506Z,-0.33
2022-12-03T11:35:27.525Z,-0.38
2022-12-03T11:37:55.391Z,-0.39
2022-12-03T11:40:37.729Z,-0.39
2022-12-03T11:43:11.095Z,-0.38
2022-12-03T11:45:41.113Z,-0.39
2022-12-03T11:48:18.930Z,-0.38
2022-12-03T11:50:51.587Z,-0.34
2022-12-03T11:53:24.817Z,-0.32
2022-12-03T11:56:06.530Z,-0.30
2022-12-03T11:58:34.551Z,-0.28
2022-12-03T12:01:05.797Z,-0.26
2022-12-03T12:03:34.658Z,-0.24
2022-12-03T12:06:10.726Z,-0.23
2022-12-03T12:08:39.535Z,-0.19
2022-12-03T12:11:17.231Z,-0.14
2022-12-03T12:13:56.184Z,-0.10
2022-12-03T12:16:51.458Z,-0.08
2022-12-03T12:19:49.755Z,-0.03
2022-12-03T12:22:32.800Z,0.05
2022-12-03T12:25:01.279Z,0.09
2022-12-03T12:27:36.044Z,0.13
2022-12-03T12:30:05.648Z,0.14
2022-12-03T12:32:40.110Z,0.11
2022-12-03T12:35:17.318Z,0.12
2022-12-03T12:37:59.766Z,0.11
2022-12-03T12:40:30.646Z,0.12
2022-12-03T12:42:59.534Z,0.17
2022-12-03T12:45:28.769Z,0.22
2022-12-03T12:48:09.297Z,0.26
2022-12-03T12:50:38.083Z,0.33
2022-12-03T12:53:13.533Z,0.38
2022-12-03T12:55:40.990Z,0.40
2022-12-03T12:58:14.958Z,0.41
2022-12-03T13:00:42.134Z,0.36
2022-12-03T13:03:11.907Z,0.33
2022-12-03T13:05:42.689Z,0.31
2022-12-03T13:08:23.842Z,0.29
2022-12-03T13:10:51.693Z,0.26
2022-12-03T13:13:23.607Z,0.29
2022-12-03T13:16:00.097Z,0.35
2022-12-03T13:18:47.110Z,0.39
2022-12-03T13:21:23.965Z,0.35
2022-12-03T13:23:52.965Z,0.30
2022-12-03T13:26:34.666Z,0.28
2022-12-03T13:29:13.368Z,0.27
2022-12-03T13:31:44.121Z,0.28
2022-12-03T13:34:18.014Z,0.32
2022-12-03T13:36:51.966Z,0.35
2022-12-03T13:39:28.533Z,0.37
2022-12-03T13:42:14.312Z,0.37
2022-12-03T13:44:46.757Z,0.39
2022-12-03T13:47:20.264Z,0.40
2022-12-03T13:49:53.499Z,0.38
2022-12-03T13:52:23.265Z,0.35
2022-12-03T13:54:52.944Z,0.31
2022-12-03T13:57:22.541Z,0.28
2022-12-03T13:59:49.830Z,0.29
2022-12-03T14:02:17.320Z,0.30
2022-12-03T14:04:44.746Z,0.28
2022-12-03T14:07:11.908Z,0.28
2022-12-03T14:09:39.042Z,0.26
2022-12-03T14:12:24.897Z,0.22
2022-12-03T14:14:52.405Z,0.15
2022-12-03T14:17:19.541Z,0.14
2022-12-03T14:19:47.050Z,0.14
2022-12-03T14:22:14.357Z,0.16
2022-12-03T14:24:44.989Z,0.17
2022-12-03T14:27:12.244Z,0.17
2022-12-03T14:29:39.707Z,0.18
2022-12-03T14:32:07.070Z,0.20
2022-12-03T14:34:34.350Z,0.19
2022-12-03T14:37:02.096Z,0.19
2022-12-03T14:39:29.629Z,0.23
2022-12-03T14:42:15.722Z,0.26
2022-12-03T14:44:44.148Z,0.28
2022-12-03T14:47:26.886Z,0.29
2022-12-03T14:49:54.713Z,0.30
2022-12-03T14:52:22.325Z,0.33
2022-12-03T14:54:49.541Z,0.31
2022-12-03T14:57:17.370Z,0.29
2022-12-03T14:59:46.004Z,0.30
2022-12-03T15:02:14.410Z,0.33
2022-12-03T15:04:42.812Z,0.37
2022-12-03T15:07:10.367Z,0.37
2022-12-03T15:09:37.871Z,0.38
2022-12-03T15:12:05.483Z,0.40
2022-12-03T15:14:32.886Z,0.37
2022-12-03T15:17:00.992Z,0.37
2022-12-03T15:19:28.679Z,0.40
2022-12-03T15:21:55.768Z,0.41
2022-12-03T15:24:23.092Z,0.41
2022-12-03T15:26:52.393Z,0.40
2022-12-03T15:29:19.570Z,0.41
2022-12-03T15:31:47.259Z,0.41
2022-12-03T15:34:18.864Z,0.40
2022-12-03T15:36:49.419Z,0.39
2022-12-03T15:39:16.670Z,0.38
2022-12-03T15:41:44.401Z,0.39
2022-12-03T15:44:11.782Z,0.41
2022-12-03T15:46:38.994Z,0.44
2022-12-03T15:49:06.565Z,0.44
2022-12-03T15:51:33.724Z,0.45
2022-12-03T15:54:01.079Z,0.47
2022-12-03T15:56:28.434Z,0.48
2022-12-03T15:58:55.791Z,0.47
2022-12-03T16:01:23.080Z,0.48
2022-12-03T16:03:50.429Z,0.50
2022-12-03T16:06:18.284Z,0.47
2022-12-03T16:08:46.167Z,0.46
2022-12-03T16:11:13.381Z,0.48
2022-12-03T16:13:40.535Z,0.51
2022-12-03T16:16:08.408Z,0.50
2022-12-03T16:18:35.631Z,0.51
2022-12-03T16:21:02.905Z,0.50
2022-12-03T16:23:30.261Z,0.49
2022-12-03T16:25:57.339Z,0.48
2022-12-03T16:28:24.974Z,0.46
2022-12-03T16:30:52.291Z,0.43
2022-12-03T16:33:25.679Z,0.38
2022-12-03T16:35:55.758Z,0.36
2022-12-03T16:38:23.217Z,0.34
2022-12-03T16:40:50.553Z,0.33
2022-12-03T16:43:18.012Z,0.32
2022-12-03T16:46:20.734Z,0.30
2022-12-03T16:48:48.750Z,0.30
2022-12-03T16:51:16.125Z,0.30
2022-12-03T16:53:43.329Z,0.30
2022-12-03T16:56:11.503Z,0.32
2022-12-03T16:58:38.669Z,0.33
2022-12-03T17:01:06.187Z,0.35
2022-12-03T17:03:34.247Z,0.36
2022-12-03T17:06:01.510Z,0.36
2022-12-03T17:08:29.047Z,0.38
2022-12-03T17:10:56.493Z,0.39
2022-12-03T17:13:24.155Z,0.38
2022-12-03T17:15:51.423Z,0.38
2022-12-03T17:18:18.931Z,0.40
2022-12-03T17:20:46.236Z,0.41
2022-12-03T17:23:13.359Z,0.43
2022-12-03T17:25:40.647Z,0.45
2022-12-03T17:28:08.193Z,0.46
2022-12-03T17:30:37.599Z,0.44
2022-12-03T17:33:05.353Z,0.45
2022-12-03T17:35:32.617Z,0.45
2022-12-03T17:37:59.712Z,0.43
2022-12-03T17:40:27.624Z,0.44
2022-12-03T17:42:54.874Z,0.42
2022-12-03T17:45:22.232Z,0.37
2022-12-03T17:47:49.487Z,0.36
2022-12-03T17:50:16.865Z,0.38
2022-12-03T17:52:44.109Z,0.38
2022-12-03T17:55:16.367Z,0.37
2022-12-03T17:57:50.997Z,0.35
2022-12-03T18:00:18.996Z,0.34
2022-12-03T18:02:46.481Z,0.34
2022-12-03T18:05:14.250Z,0.33
2022-12-03T18:07:41.785Z,0.34
2022-12-03T18:10:11.155Z,0.38
2022-12-03T18:12:38.501Z,0.40
2022-12-03T18:15:06.709Z,0.40
2022-12-03T18:17:33.930Z,0.36
2022-12-03T18:20:01.796Z,0.37
2022-12-03T18:22:29.146Z,0.38
2022-12-03T18:24:57.218Z,0.36
2022-12-03T18:27:24.801Z,0.35
2022-12-03T18:29:52.292Z,0.33
2022-12-03T18:32:28.972Z,0.32
2022-12-03T18:34:57.707Z,0.30
2022-12-03T18:37:27.121Z,0.31
2022-12-03T18:39:57.897Z,0.30
2022-12-03T18:42:25.906Z,0.29
2022-12-03T18:44:54.807Z,0.29
2022-12-03T18:47:24.118Z,0.29
2022-12-03T18:49:52.654Z,0.31
2022-12-03T18:52:21.781Z,0.33
2022-12-03T18:54:49.543Z,0.35
2022-12-03T18:57:18.329Z,0.36
2022-12-03T18:59:45.688Z,0.40
2022-12-03T19:05:10.868Z,0.37
2022-12-03T19:07:38.270Z,0.37
2022-12-03T19:10:06.627Z,0.36
2022-12-03T19:12:34.306Z,0.35
2022-12-03T19:15:01.662Z,0.35
2022-12-03T19:17:28.892Z,0.33
2022-12-03T19:19:56.526Z,0.31
2022-12-03T19:22:24.953Z,0.30
2022-12-03T19:24:52.111Z,0.29
2022-12-03T19:27:19.692Z,0.30
2022-12-03T19:29:51.050Z,0.30
2022-12-03T19:32:18.265Z,0.32
2022-12-03T19:34:45.530Z,0.34
2022-12-03T19:37:12.774Z,0.36
2022-12-03T19:39:40.092Z,0.37
2022-12-03T19:42:07.494Z,0.38
2022-12-03T19:44:34.835Z,0.39
2022-12-03T19:47:02.356Z,0.40
2022-12-03T19:49:29.527Z,0.41
2022-12-03T19:51:58.207Z,0.45
2022-12-03T19:54:25.588Z,0.49
2022-12-03T19:56:52.792Z,0.55
2022-12-03T19:59:19.964Z,0.56
2022-12-03T20:01:47.232Z,0.59
2022-12-03T20:04:15.220Z,0.63
2022-12-03T20:06:43.001Z,0.64
2022-12-03T20:09:12.523Z,0.64
2022-12-03T20:11:41.289Z,0.65
2022-12-03T20:14:12.354Z,0.64
2022-12-03T20:16:42.213Z,0.64
2022-12-03T20:19:15.420Z,0.65
2022-12-03T20:21:43.289Z,0.68
2022-12-03T20:24:13.925Z,0.68
2022-12-03T20:26:41.729Z,0.68
2022-12-03T20:29:09.038Z,0.68
2022-12-03T20:31:36.346Z,0.70
2022-12-03T20:34:04.993Z,0.69
2022-12-03T20:36:33.568Z,0.70
2022-12-03T20:39:03.401Z,0.71
2022-12-03T20:41:31.674Z,0.74
2022-12-03T20:43:58.693Z,0.73
2022-12-03T20:46:27.467Z,0.69
2022-12-03T20:48:55.255Z,0.66
2022-12-03T20:51:26.635Z,0.64
2022-12-03T20:53:55.597Z,0.61
2022-12-03T20:56:25.061Z,0.57
2022-12-03T20:58:53.394Z,0.56
2022-12-03T21:01:22.635Z,0.55
2022-12-03T21:03:51.109Z,0.52
2022-12-03T21:06:19.740Z,0.50
2022-12-03T21:08:48.085Z,0.49
2022-12-03T21:11:17.370Z,0.47
2022-12-03T21:13:44.895Z,0.42
2022-12-03T21:16:14.588Z,0.39
2022-12-03T21:18:41.945Z,0.34
2022-12-03T21:21:11.470Z,0.28
2022-12-03T21:23:38.982Z,0.24
2022-12-03T21:26:08.246Z,0.22
2022-12-03T21:28:35.764Z,0.22
2022-12-03T21:31:08.508Z,0.22
2022-12-03T21:33:37.037Z,0.22
2022-12-03T21:36:05.515Z,0.21
2022-12-03T21:38:33.352Z,0.24
2022-12-03T21:41:02.167Z,0.29
2022-12-03T21:43:30.653Z,0.29
2022-12-03T21:45:57.973Z,0.28
2022-12-03T21:48:25.669Z,0.29
2022-12-03T21:51:03.774Z,0.30
2022-12-03T21:53:32.243Z,0.29
2022-12-03T21:56:00.257Z,0.26
2022-12-03T21:58:27.381Z,0.24
2022-12-03T22:00:54.949Z,0.22
2022-12-03T22:03:22.911Z,0.21
2022-12-03T22:05:50.263Z,0.22
2022-12-03T22:08:18.228Z,0.26
2022-12-03T22:10:45.921Z,0.31
2022-12-03T22:13:13.223Z,0.34
2022-12-03T22:15:42.302Z,0.34
2022-12-03T22:18:09.592Z,0.33
2022-12-03T22:20:36.742Z,0.31
2022-12-03T22:23:04.072Z,0.30
2022-12-03T22:25:31.863Z,0.30
2022-12-03T22:27:59.014Z,0.28
2022-12-03T22:30:26.476Z,0.26
2022-12-03T22:32:53.621Z,0.24
2022-12-03T22:35:20.796Z,0.24
2022-12-03T22:37:48.228Z,0.23
2022-12-03T22:40:16.612Z,0.23
2022-12-03T22:42:49.341Z,0.21
2022-12-03T22:45:18.383Z,0.21
2022-12-03T22:47:45.534Z,0.22
2022-12-03T22:50:13.444Z,0.21
2022-12-03T22:52:40.667Z,0.21
2022-12-03T22:55:10.645Z,0.22
2022-12-03T22:57:37.767Z,0.21
2022-12-03T23:00:08.901Z,0.22
2022-12-03T23:02:36.277Z,0.21
2022-12-03T23:05:04.112Z,0.17
2022-12-03T23:07:31.388Z,0.14
2022-12-03T23:09:58.744Z,0.09
2022-12-03T23:12:25.867Z,0.07
2022-12-03T23:14:55.903Z,0.07
2022-12-03T23:17:23.281Z,0.04
2022-12-03T23:19:50.671Z,0.02
2022-12-03T23:22:18.029Z,-0.00
2022-12-03T23:24:45.096Z,0.01
2022-12-03T23:27:12.207Z,0.03
2022-12-03T23:29:39.566Z,0.03
2022-12-03T23:32:06.850Z,0.05
2022-12-03T23:34:33.721Z,0.05
2022-12-03T23:37:01.039Z,0.04
2022-12-03T23:39:28.182Z,0.02
2022-12-03T23:41:55.535Z,0.02
2022-12-03T23:44:22.795Z,0.00
2022-12-03T23:46:50.040Z,-0.02
2022-12-03T23:49:17.350Z,-0.03
2022-12-03T23:51:44.449Z,-0.03
2022-12-03T23:54:12.433Z,-0.03
2022-12-03T23:56:39.570Z,-0.04
2022-12-03T23:59:06.962Z,-0.06
